Rating List


Tournament directors can view a complete rating list of all members both current and past. Right click on view to save this comma delimited text file so it can be imported to any database, spreadsheet or word processor you want. The file contains CFC Numbers, Names, Expiry Dates, Ratings (both active and regular) and Rating Indicators.

Ratings Calculator


Tournament players can calculate the approximate value of their new rating ahead of the weekly ratings update.

Player Information

Cor Dewindt
RatingHighest RatingActive RatingActive HighestFIDE RatingCFC#ExpiryCity/Prov
155318131553160001081242008-06-01Brookside Village, AB

Tournament Name

Tournament Date

Type

Games

Pre-Rating

Perf-Rating

Post-Rating

Total

ECC Ottosen Open 2007-06-28 R 4 1516 1740 1553 2.5
ECC Skeel Memorial 2007-04-26 R 4 1547 1354 1516 1.5
2007 Edmonton Reserves 2007-02-22 R 7 1528 1604 1547 3.0
ECC Christmas Open 2006-12-28 R 4 1530 1496 1528 2.0
ECC Dance O Power 2006-11-30 R 2 1425 1148 1407 1.5
ECC Halloween Open 2006-10-26 R 4 1459 1252 1425 1.5
2006 ECC Autumn Open 2006-09-28 R 4 1461 1451 1459 2.0
Armouries Memorial 2006-08-31 R 5 1393 1766 1461 3.5
ECC Frank Anderson Memorial 2006-07-31 R 4 1386 1406 1393 2.0
Caissas Temple Open 2006-06-30 R 4 1428 1140 1386 1.0
ECC Capablanca Classic 2006-03-30 R 5 1429 1399 1428 2.5
ECC Reserves 2006 2006-02-23 R 7 1472 1333 1429 3.0
ECC Christmas Open 2006-01-09 R 5 1466 1479 1472 3.0
ECC Dance o Power 2005-11-24 R 4 1453 1510 1466 2.0
ECC Halloween Open 2005-11-16 R 4 1439 1531 1453 2.5
Alberta Open 2005 2005-10-10 R 5 1419 1542 1439 2.0
ECC Back To School Open 2005-09-30 R 4 1439 1442 1439 1.5
ECC August Open 2005-08-25 R 2 1381 1897 1419 3.0
ECC Summer Open Aug 4 2005-07-28 R 3 1359 1555 1381 2.0
2005 Canadian Open 2005-07-17 R 10 1414 1370 1394 3.5
ECC Capablanca Classic Aug 4 2005-06-30 R 4 1394 1182 1359 1.0
Edmonton Spring Sectional J 2005-04-03 R 5 1436 1295 1414 3.0
ECC March Open 2005-03-31 R 5 1422 1498 1436 2.0
Edmonton Reserves 2005 2005-03-03 R 6 1394 1501 1422 4.0
Northern Alberta Open Open Section 2005-02-06 R 4 1385 1463 1394 1.0
ECC Christmas Open 2004 2004-12-30 R 5 1374 1428 1385 2.0
Weekend Before Xmas Open 2004-12-19 R 5 1410 1224 1374 0.5
ECC Dance of Power 2004-11-25 R 4 1409 1397 1410 1.5
ECC Halloween Open 2004-10-28 R 4 1415 1379 1409 1.0
Back to School Open 2004 2004-09-30 R 4 1404 1475 1415 2.5
Edmonton CC Fall Under 1800 2004-09-05 R 5 1404 1384 1404 2.0
ECC August Open 2004-08-26 R 4 1388 1518 1404 1.5
ECC Summer Swiss 2004-07-29 R 2 1362 1683 1388 2.5
Edmonton July Swiss 2004-07-25 R 4 1324 1626 1362 2.0
ECC Skeel Memorial 2004-06-24 R 4 1345 1187 1324 1.0
ECC Capablanca Classic 2004-05-27 R 4 1341 1367 1345 1.0
U of A Open 2004-05-09 R 4 1309 1520 1341 2.5
ECC Hollowach Challenge 2004-05-08 R 4 1322 1249 1309 1.0
ECC Spring Open 2004-03-25 R 3 1339 1222 1322 1.0
Edmonton Closed Reserves 2004-02-26 R 7 1364 1251 1339 2.5
Northern Alberta Open 2004-02-22 R 4 1339 1533 1364 2.0
Trumpeter Classic 2004-01-18 R 5 1366 1239 1339 0.5
Weekend Before Christmas 2003-12-21 R 5 1369 1340 1366 2.0
ECC Dance O Power 2003-11-30 R 4 1339 1540 1369 1.5
ECC Halloween Open 2003-10-30 R 5 1347 1310 1339 1.5
2003 Alberta Open 2003-10-13 R 6 1385 1243 1347 1.5
Back to School Open 2003-09-25 R 4 1392 1331 1385 1.5
ECC August Open 2003-08-28 R 4 1395 1369 1392 1.0
ECC Summer Swiss 2003-07-31 R 5 1387 1444 1395 2.0
ECC Skeel Memorial 2003-06-26 R 4 1410 1263 1387 0.5
Capablanca Classic 2003-05-29 R 4 1423 1329 1410 2.0
Hollowich Schnitka Memorial 2003-04-24 R 4 1437 1320 1423 1.0
ECC Spring Open 2003-04-07 R 4 1429 1484 1437 1.0
Northern Alberta Open 2003-02-23 R 4 1457 1398 1429 0.5
Edmonton Championship 2003 2003-02-20 R 4 1457 1434 1457 2.5
ECC Christmas Classic 2002-12-19 R 3 1474 1373 1457 0.5
Two Weeks Before Christmas 2002-12-15 R 4 1465 1534 1474 1.5
Dance o Power 2002-11-28 R 3 1437 1679 1465 2.0
Silver Star Classic 2002-11-11 R 6 1415 1509 1437 2.5
ECC Halloween Open 2002 2002-10-31 R 5 1422 1351 1415 1.5
Back to School Open 2002 2002-09-26 R 4 1409 1527 1422 1.5
Alberta U1800 2002-09-01 R 5 1401 1439 1409 2.5
August Open 2002-08-29 R 5 1431 1249 1401 1.0
Return of the Rock Lacroix Open 2002-08-18 R 4 1443 1379 1431 1.5
ECC Art Skeel Memorial 2002-06-27 R 4 1464 1313 1443 1.0
Edmonton Spring Sectional C 2002-06-16 R 5 1484 1376 1464 1.5
ECC Capablanca Classic 2002-05-30 R 4 1495 1415 1484 1.0
2002 April Open 2002-04-28 R 4 1495 1555 1495 2.0
April Thursdays 2002-04-25 R 4 1475 1597 1495 1.5
ECC Spring Open 2002-03-28 R 2 1498 1185 1475 1.0
Alberta Reserves 2002-02-17 R 5 1470 1645 1498 2.0
Edmonton CC Championship 2002-02-14 R 7 1484 1432 1470 2.0
Northern Alberta Open 2002-01-27 R 4 1466 1569 1484 2.0
ECC Open 2002-01-17 R 4 1454 1514 1466 1.5
Two Weeks Before Christmas 2001-12-16 R 5 1473 1357 1454 1.5
Dance O Power 2001-11-29 R 5 1407 1814 1473 2.5
October Open 2001-10-25 R 4 1394 1503 1407 1.0
Alberta Open 2001-10-08 R 6 1396 1417 1394 1.5
September Thursdays 2001-09-27 R 4 1410 1310 1396 0.5
Sept Under1800 2001-09-01 R 5 1475 1349 1456 1.5
August Appreciation Tournament 2001-08-30 R 5 1456 1229 1410 0.0
Anderson Rock Lacroix farewell 2001-08-05 R 3 1488 1478 1475 0.5
ECC July Round Robins 2001-07-19 R 3 1507 1341 1488 0.5
Art Skeel Memorial 2001-06-28 R 4 1554 1213 1507 1.0
U of A Open 2001-05-31 R 4 1527 1673 1554 3.0
Abe Yanofsky Memorial Tmt 2001-05-27 R 4 1511 1603 1527 2.0
ECC April Over Under Under 1675 2001-04-26 R 3 1509 1513 1511 2.0
ECC March Thursday 2001-03-29 R 1 1519 1256 1509 0.0
Edmonton Championship 2001 2001-02-28 R 7 1505 1511 1519 3.5
Northern Alberta Open 2001-02-25 R 5 1498 1524 1505 2.0
Trumpeter Classic 2001 2001-01-21 R 5 1516 1387 1498 2.0
ECC Xmas Open 2000-12-08 R 4 1492 1623 1516 2.0
ECC Dance O Power 2000-11-30 R 5 1486 1505 1492 1.5
ECC October 2000-10-26 R 4 1505 1402 1493 1.0
Alberta Open 2000-10-01 R 6 1493 1482 1486 1.5
Edmonton Open 2000-09-28 R 2 1516 1345 1505 0.5
Edmonton Labour Day Under 1800 2000-09-03 R 5 1496 1548 1509 2.0
ECC Summer Open 2000-08-31 R 5 1509 1545 1516 2.5
2000 Canadian Open 2000-07-16 R 10 1573 1375 1496 3.0
ECC Art Skeel Memorial 2000-06-29 R 5 1582 1560 1573 2.5
ECC Memories of Fisher 2000-05-25 R 4 1581 1572 1582 1.5
Hollowach Challenge 2000-04-27 R 4 1582 1577 1581 1.5
Alberta Reserves 2000-04-23 R 5 1594 1504 1582 2.5
Edmonton Chess Club March Open 2000-03-30 R 4 1599 1525 1594 2.0
Edmonton Reserves 2000-02-24 R 7 1547 1702 1599 4.5
Northern Alberta Open 2000-02-20 R 5 1587 1346 1547 1.0
Dance O Joy 1999-11-25 R 4 1590 1316 1542 0.5
Southern Alberta Open 1999-11-14 R 5 1581 1637 1590 1.5
ECC Halloween Open 1999-10-28 R 4 1582 1567 1581 2.0
Alberta Open 1999-10-11 R 6 1553 1685 1582 2.5
ECC September 1999-09-30 R 4 1526 1781 1553 2.0
Alberta Under 1800 1999-09-05 R 4 1560 1313 1526 1.5
Summer Open 1999-08-26 R 3 1559 1512 1560 1.5
Schools Out 1999-07-29 R 5 1564 1512 1559 2.5
Skeel Memorial 1999-06-30 R 4 1575 1518 1564 1.0
Canada Day Open 1999-06-27 R 5 1549 1682 1575 2.0
May Open 1999-05-27 R 4 1541 1589 1549 2.0
Used to be U of A Open 1999-05-16 R 5 1559 1464 1541 1.5
Alberta Reserves 1999-04-04 R 5 1568 1567 1559 1.0
SNIKTA Memorial 1999-04-01 R 4 1539 1711 1568 3.0
Capablanca Memorial 1999-03-25 R 4 1573 1361 1539 1.0
Northern Alberta 1999-02-21 R 5 1608 1442 1573 1.0
Edmonton Reserves 1999-02-17 R 7 1611 1586 1608 3.5
Hinton Foothills Classic 1999-02-14 R 4 1638 1518 1611 0.5
Weekend Before Xmas 1998-12-20 R 5 1660 1581 1635 1.5
Edmonton CC December Open 1998-12-17 R 2 1635 1686 1638 1.5
November Open 1998-11-26 R 3 1646 1764 1660 2.5
ECC Oct Open 1998-10-29 R 5 1668 1558 1646 2.0
Alberta Open 1998-10-12 R 6 1665 1696 1668 3.0
Edmonton Open 1998-09-24 R 4 1656 1729 1665 2.0
1998 Summer Open 1998-08-27 R 3 1639 1765 1656 2.5
ECC Tag Team 1998-07-30 R 5 1628 1709 1639 2.5
Memories of Fischer U2000 1998-05-28 R 3 1645 1490 1628 1.0
Used To Be U of A Open 1998-05-10 R 4 1655 1793 1674 2.0
Alberta Reserves 1998-04-12 R 5 1649 1664 1655 2.0
Schnitka Memorial 1998-03-30 R 6 1674 1541 1645 2.5
ECC Capablanca Memorial 1998-03-26 R 4 1664 1558 1649 2.0
Northern Albera Open 1998-02-22 R 5 1683 1636 1664 2.0
Edmonton Closed 1998-02-19 R 7 1690 1685 1683 0.5
Hinton Foothills Classic A 1998-02-08 R 4 1699 1566 1690 2.5
Weekend Before Xmas 1997-12-21 R 5 1733 1546 1699 2.0
Dance O Joy 1997-11-27 R 4 1727 1754 1733 2.5
Edmonton Open 1997-10-30 R 5 1724 1723 1727 2.5
Alberta Open 1997-10-13 R 6 1689 1813 1724 3.0
ECC September 1997-09-25 R 4 1704 1597 1689 1.5
ACA U1800 1997-09-21 R 5 1629 1872 1704 4.0
ECC August 1997-08-28 R 4 1634 1577 1629 1.5
Edmonton July Open 1997-07-31 R 5 1680 1435 1634 1.0
ECC June Open 1997-06-29 R 4 1648 1823 1680 2.5
Red Deer Open 1997-06-08 R 5 1659 1591 1648 1.5
Memories of Fisher 1997-05-29 R 5 1648 1689 1659 3.0
Used To Be U of A 1997-05-10 R 4 1669 1526 1648 1.5
Edmonton April 1997-04-24 R 4 1664 1670 1669 2.5
High Level Stardust A 1997-04-20 R 4 1712 1387 1664 1.5
Alberta Reserves 1997-03-30 R 5 1725 1645 1712 2.5
Snitka Memorial 1997-03-25 R 5 1741 1645 1725 2.5
AB Rural Qualifier 1997-03-16 R 5 1789 1546 1741 1.0
Northern AB Open 1997-02-23 R 5 1813 1691 1789 2.0
ECC Reserves 1997-02-20 R 5 1734 1987 1813 4.5
Weekend Before XMas 1996-12-22 R 5 1734 1761 1734 2.0
ECC December B 1996-12-19 R 3 1723 1796 1734 2.5
ECC November 1996-11-28 R 4 1698 1839 1723 2.0
Edmonton Open 1996-11-17 R 5 1708 1627 1698 2.5
Alberta Open 1996-10-14 R 5 1699 1747 1708 2.5
ECC Sept Open 1996-09-26 R 4 1704 1662 1699 1.5
Edmonton CC Aug 1996-08-29 R 4 1666 1858 1704 3.0
ECC Summer 1996-08-01 R 5 1697 1534 1666 2.0
Canadian Open 1996 1996-07-22 R 10 1671 1734 1697 4.0
Memories of Fischer 1996-06-20 R 4 1639 1810 1671 3.0
Edmonton Chess Club Active 2003-12-18 A 9 1424 1288 1384 3.0
Alberta Active Championship 2003-07-26 A 5 1471 1072 1424 1.5
ECC February Active 2002-02-28 A 3 1492 1074 1471 2.5
ECC July Active 2000-07-27 A 6 1559 1181 1492 1.5
Remedy Coffeehouse Challenge 1998-08-08 A 4 1573 1421 1550 1.0
ECC Alekhine Active 1997-12-18 A 9 1581 1535 1573 3.0